sensor_id;sensor_type;location;lat;lon;timestamp;P1;durP1;ratioP1;P2;durP2;ratioP2
22837;SDS011;11585;51.450;-0.240;2023-08-01T00:00:28;13.00;;;3.70;;
22837;SDS011;11585;51.450;-0.240;2023-08-01T00:02:53;12.60;;;3.80;;
22837;SDS011;11585;51.450;-0.240;2023-08-01T00:08:50;9.88;;;3.97;;
22837;SDS011;11585;51.450;-0.240;2023-08-01T00:11:16;14.35;;;4.15;;
22837;SDS011;11585;51.450;-0.240;2023-08-01T00:13:42;13.38;;;3.90;;
22837;SDS011;11585;51.450;-0.240;2023-08-01T00:16:09;11.43;;;4.20;;
22837;SDS011;11585;51.450;-0.240;2023-08-01T00:18:34;18.80;;;4.53;;
22837;SDS011;11585;51.450;-0.240;2023-08-01T00:21:00;18.27;;;4.05;;
22837;SDS011;11585;51.450;-0.240;2023-08-01T00:23:26;13.45;;;4.43;;
22837;SDS011;11585;51.450;-0.240;2023-08-01T00:25:54;16.60;;;3.80;;
22837;SDS011;11585;51.450;-0.240;2023-08-01T00:28:23;10.25;;;4.40;;
22837;SDS011;11585;51.450;-0.240;2023-08-01T00:30:48;16.33;;;4.32;;
22837;SDS011;11585;51.450;-0.240;2023-08-01T00:33:14;19.15;;;4.13;;
22837;SDS011;11585;51.450;-0.240;2023-08-01T00:38:24;14.27;;;4.03;;
22837;SDS011;11585;51.450;-0.240;2023-08-01T00:40:50;18.85;;;4.47;;
22837;SDS011;11585;51.450;-0.240;2023-08-01T00:43:15;17.30;;;4.95;;
22837;SDS011;11585;51.450;-0.240;2023-08-01T00:48:29;12.52;;;4.18;;
22837;SDS011;11585;51.450;-0.240;2023-08-01T00:50:59;17.17;;;4.57;;
22837;SDS011;11585;51.450;-0.240;2023-08-01T00:53:27;12.93;;;4.93;;
22837;SDS011;11585;51.450;-0.240;2023-08-01T00:59:00;16.73;;;4.57;;
22837;SDS011;11585;51.450;-0.240;2023-08-01T01:01:26;12.85;;;4.15;;
22837;SDS011;11585;51.450;-0.240;2023-08-01T01:03:51;15.20;;;4.40;;
22837;SDS011;11585;51.450;-0.240;2023-08-01T01:06:41;10.43;;;3.97;;
22837;SDS011;11585;51.450;-0.240;2023-08-01T01:09:27;16.30;;;4.80;;
22837;SDS011;11585;51.450;-0.240;2023-08-01T01:11:56;24.65;;;4.97;;
22837;SDS011;11585;51.450;-0.240;2023-08-01T01:14:22;14.52;;;4.13;;
22837;SDS011;11585;51.450;-0.240;2023-08-01T01:19:34;23.52;;;4.88;;
22837;SDS011;11585;51.450;-0.240;2023-08-01T01:22:00;15.93;;;4.07;;
22837;SDS011;11585;51.450;-0.240;2023-08-01T01:24:28;15.18;;;4.40;;
22837;SDS011;11585;51.450;-0.240;2023-08-01T01:29:59;22.58;;;4.72;;
22837;SDS011;11585;51.450;-0.240;2023-08-01T01:32:26;15.63;;;4.35;;
22837;SDS011;11585;51.450;-0.240;2023-08-01T01:34:54;13.48;;;4.57;;
22837;SDS011;11585;51.450;-0.240;2023-08-01T01:37:20;17.10;;;4.80;;
22837;SDS011;11585;51.450;-0.240;2023-08-01T01:39:45;18.67;;;5.22;;
22837;SDS011;11585;51.450;-0.240;2023-08-01T01:42:11;10.88;;;4.63;;
22837;SDS011;11585;51.450;-0.240;2023-08-01T01:44:38;19.75;;;4.70;;
22837;SDS011;11585;51.450;-0.240;2023-08-01T01:49:49;14.88;;;4.20;;
22837;SDS011;11585;51.450;-0.240;2023-08-01T01:52:15;15.02;;;4.22;;
22837;SDS011;11585;51.450;-0.240;2023-08-01T01:54:40;13.75;;;4.00;;
22837;SDS011;11585;51.450;-0.240;2023-08-01T01:57:06;11.38;;;4.38;;
22837;SDS011;11585;51.450;-0.240;2023-08-01T01:59:32;13.23;;;4.28;;
22837;SDS011;11585;51.450;-0.240;2023-08-01T02:01:57;14.32;;;4.72;;
22837;SDS011;11585;51.450;-0.240;2023-08-01T02:04:24;14.82;;;4.68;;
22837;SDS011;11585;51.450;-0.240;2023-08-01T02:09:55;21.40;;;4.25;;
22837;SDS011;11585;51.450;-0.240;2023-08-01T02:12:23;17.63;;;5.03;;
22837;SDS011;11585;51.450;-0.240;2023-08-01T02:14:49;15.05;;;4.53;;
22837;SDS011;11585;51.450;-0.240;2023-08-01T02:17:15;13.90;;;4.25;;
22837;SDS011;11585;51.450;-0.240;2023-08-01T02:19:41;20.02;;;5.40;;
22837;SDS011;11585;51.450;-0.240;2023-08-01T02:22:06;14.20;;;4.47;;
22837;SDS011;11585;51.450;-0.240;2023-08-01T02:24:32;7.85;;;4.10;;
22837;SDS011;11585;51.450;-0.240;2023-08-01T02:29:43;21.15;;;5.05;;
22837;SDS011;11585;51.450;-0.240;2023-08-01T02:32:09;13.60;;;4.40;;
22837;SDS011;11585;51.450;-0.240;2023-08-01T02:34:35;18.58;;;5.00;;
22837;SDS011;11585;51.450;-0.240;2023-08-01T02:39:47;19.38;;;4.82;;
22837;SDS011;11585;51.450;-0.240;2023-08-01T02:42:13;15.88;;;4.70;;
22837;SDS011;11585;51.450;-0.240;2023-08-01T02:44:38;16.92;;;4.68;;
22837;SDS011;11585;51.450;-0.240;2023-08-01T02:47:05;18.98;;;4.85;;
22837;SDS011;11585;51.450;-0.240;2023-08-01T02:49:31;16.52;;;5.35;;
22837;SDS011;11585;51.450;-0.240;2023-08-01T02:51:57;11.05;;;4.10;;
22837;SDS011;11585;51.450;-0.240;2023-08-01T02:54:24;15.98;;;4.88;;
22837;SDS011;11585;51.450;-0.240;2023-08-01T03:00:12;15.88;;;4.45;;
22837;SDS011;11585;51.450;-0.240;2023-08-01T03:02:38;23.40;;;4.30;;
22837;SDS011;11585;51.450;-0.240;2023-08-01T03:07:50;17.92;;;4.93;;
22837;SDS011;11585;51.450;-0.240;2023-08-01T03:10:16;14.50;;;4.90;;
22837;SDS011;11585;51.450;-0.240;2023-08-01T03:12:42;15.85;;;4.95;;
22837;SDS011;11585;51.450;-0.240;2023-08-01T03:18:12;14.40;;;5.18;;
22837;SDS011;11585;51.450;-0.240;2023-08-01T03:20:38;14.25;;;4.38;;
22837;SDS011;11585;51.450;-0.240;2023-08-01T03:23:04;17.52;;;4.63;;
22837;SDS011;11585;51.450;-0.240;2023-08-01T03:28:52;16.20;;;4.85;;
22837;SDS011;11585;51.450;-0.240;2023-08-01T03:31:18;16.27;;;4.93;;
22837;SDS011;11585;51.450;-0.240;2023-08-01T03:33:43;18.33;;;4.43;;
22837;SDS011;11585;51.450;-0.240;2023-08-01T03:39:31;15.23;;;4.60;;
22837;SDS011;11585;51.450;-0.240;2023-08-01T03:41:57;14.27;;;5.07;;
22837;SDS011;11585;51.450;-0.240;2023-08-01T03:44:22;19.35;;;5.40;;
22837;SDS011;11585;51.450;-0.240;2023-08-01T03:49:33;12.88;;;4.13;;
22837;SDS011;11585;51.450;-0.240;2023-08-01T03:52:00;16.05;;;4.35;;
22837;SDS011;11585;51.450;-0.240;2023-08-01T03:54:25;13.10;;;4.78;;
22837;SDS011;11585;51.450;-0.240;2023-08-01T04:00:13;10.85;;;4.15;;
22837;SDS011;11585;51.450;-0.240;2023-08-01T04:02:40;16.25;;;4.32;;
22837;SDS011;11585;51.450;-0.240;2023-08-01T04:11:50;18.27;;;4.85;;
22837;SDS011;11585;51.450;-0.240;2023-08-01T04:14:16;15.18;;;4.20;;
22837;SDS011;11585;51.450;-0.240;2023-08-01T04:19:44;12.15;;;4.20;;
22837;SDS011;11585;51.450;-0.240;2023-08-01T04:31:42;17.52;;;4.32;;
22837;SDS011;11585;51.450;-0.240;2023-08-01T04:37:34;14.85;;;4.25;;
22837;SDS011;11585;51.450;-0.240;2023-08-01T04:39:59;12.27;;;4.25;;
22837;SDS011;11585;51.450;-0.240;2023-08-01T04:42:25;22.88;;;5.00;;
22837;SDS011;11585;51.450;-0.240;2023-08-01T04:44:51;16.50;;;4.35;;
22837;SDS011;11585;51.450;-0.240;2023-08-01T04:47:18;15.23;;;4.32;;
22837;SDS011;11585;51.450;-0.240;2023-08-01T04:49:50;17.20;;;4.50;;
22837;SDS011;11585;51.450;-0.240;2023-08-01T04:52:15;11.48;;;4.13;;
22837;SDS011;11585;51.450;-0.240;2023-08-01T04:54:41;14.23;;;3.90;;
22837;SDS011;11585;51.450;-0.240;2023-08-01T04:57:07;25.10;;;5.45;;
22837;SDS011;11585;51.450;-0.240;2023-08-01T04:59:32;11.35;;;4.10;;
22837;SDS011;11585;51.450;-0.240;2023-08-01T05:01:58;11.75;;;3.53;;
22837;SDS011;11585;51.450;-0.240;2023-08-01T05:04:24;7.70;;;3.63;;
22837;SDS011;11585;51.450;-0.240;2023-08-01T05:09:56;15.05;;;4.05;;
22837;SDS011;11585;51.450;-0.240;2023-08-01T05:18:35;15.75;;;4.00;;
22837;SDS011;11585;51.450;-0.240;2023-08-01T05:21:01;12.85;;;4.35;;
22837;SDS011;11585;51.450;-0.240;2023-08-01T05:23:35;17.92;;;3.97;;
22837;SDS011;11585;51.450;-0.240;2023-08-01T05:29:26;15.45;;;3.75;;
22837;SDS011;11585;51.450;-0.240;2023-08-01T05:35:14;13.85;;;3.70;;
22837;SDS011;11585;51.450;-0.240;2023-08-01T05:37:43;12.55;;;4.00;;
22837;SDS011;11585;51.450;-0.240;2023-08-01T05:40:11;9.85;;;3.65;;
22837;SDS011;11585;51.450;-0.240;2023-08-01T05:42:37;16.50;;;4.28;;
22837;SDS011;11585;51.450;-0.240;2023-08-01T05:48:24;16.27;;;4.35;;
22837;SDS011;11585;51.450;-0.240;2023-08-01T05:50:50;12.93;;;4.15;;
22837;SDS011;11585;51.450;-0.240;2023-08-01T05:53:18;14.38;;;3.85;;
22837;SDS011;11585;51.450;-0.240;2023-08-01T05:59:05;10.07;;;3.40;;
22837;SDS011;11585;51.450;-0.240;2023-08-01T06:01:31;17.88;;;4.10;;
22837;SDS011;11585;51.450;-0.240;2023-08-01T06:03:57;13.73;;;4.00;;
22837;SDS011;11585;51.450;-0.240;2023-08-01T06:09:45;12.57;;;4.25;;
22837;SDS011;11585;51.450;-0.240;2023-08-01T06:12:15;13.43;;;3.88;;
22837;SDS011;11585;51.450;-0.240;2023-08-01T06:14:41;11.93;;;3.97;;
22837;SDS011;11585;51.450;-0.240;2023-08-01T06:17:07;16.45;;;3.63;;
22837;SDS011;11585;51.450;-0.240;2023-08-01T06:19:33;16.58;;;4.00;;
22837;SDS011;11585;51.450;-0.240;2023-08-01T06:21:58;13.25;;;3.80;;
22837;SDS011;11585;51.450;-0.240;2023-08-01T06:24:25;11.85;;;3.60;;
22837;SDS011;11585;51.450;-0.240;2023-08-01T06:30:13;20.95;;;4.68;;
22837;SDS011;11585;51.450;-0.240;2023-08-01T06:32:38;15.82;;;3.67;;
22837;SDS011;11585;51.450;-0.240;2023-08-01T06:38:26;18.80;;;3.90;;
22837;SDS011;11585;51.450;-0.240;2023-08-01T06:44:14;11.77;;;4.10;;
22837;SDS011;11585;51.450;-0.240;2023-08-01T06:50:02;11.32;;;4.07;;
22837;SDS011;11585;51.450;-0.240;2023-08-01T06:55:52;18.95;;;6.75;;
22837;SDS011;11585;51.450;-0.240;2023-08-01T06:58:17;15.85;;;5.45;;
22837;SDS011;11585;51.450;-0.240;2023-08-01T07:00:43;15.38;;;3.03;;
22837;SDS011;11585;51.450;-0.240;2023-08-01T07:03:09;12.93;;;3.42;;
22837;SDS011;11585;51.450;-0.240;2023-08-01T07:08:57;8.73;;;2.60;;
22837;SDS011;11585;51.450;-0.240;2023-08-01T07:11:26;10.70;;;2.63;;
22837;SDS011;11585;51.450;-0.240;2023-08-01T07:13:52;11.90;;;2.63;;
22837;SDS011;11585;51.450;-0.240;2023-08-01T07:19:39;17.30;;;2.92;;
22837;SDS011;11585;51.450;-0.240;2023-08-01T07:22:05;14.90;;;3.03;;
22837;SDS011;11585;51.450;-0.240;2023-08-01T07:24:31;8.13;;;2.47;;
22837;SDS011;11585;51.450;-0.240;2023-08-01T07:30:19;11.02;;;3.58;;
22837;SDS011;11585;51.450;-0.240;2023-08-01T07:32:47;17.67;;;3.50;;
22837;SDS011;11585;51.450;-0.240;2023-08-01T07:38:35;13.50;;;3.20;;
22837;SDS011;11585;51.450;-0.240;2023-08-01T07:41:05;9.85;;;2.38;;
22837;SDS011;11585;51.450;-0.240;2023-08-01T07:43:32;7.05;;;2.05;;
22837;SDS011;11585;51.450;-0.240;2023-08-01T07:49:20;12.60;;;3.15;;
22837;SDS011;11585;51.450;-0.240;2023-08-01T07:51:45;15.25;;;5.03;;
22837;SDS011;11585;51.450;-0.240;2023-08-01T07:54:11;12.90;;;4.13;;
22837;SDS011;11585;51.450;-0.240;2023-08-01T07:59:59;11.65;;;3.13;;
22837;SDS011;11585;51.450;-0.240;2023-08-01T08:02:24;12.40;;;3.45;;
22837;SDS011;11585;51.450;-0.240;2023-08-01T08:04:50;15.10;;;3.08;;
22837;SDS011;11585;51.450;-0.240;2023-08-01T08:07:16;10.40;;;5.07;;
22837;SDS011;11585;51.450;-0.240;2023-08-01T08:09:41;8.88;;;2.58;;
22837;SDS011;11585;51.450;-0.240;2023-08-01T08:12:07;12.70;;;2.65;;
22837;SDS011;11585;51.450;-0.240;2023-08-01T08:14:33;11.07;;;2.55;;
22837;SDS011;11585;51.450;-0.240;2023-08-01T08:20:21;10.02;;;2.60;;
22837;SDS011;11585;51.450;-0.240;2023-08-01T08:22:47;9.63;;;2.00;;
22837;SDS011;11585;51.450;-0.240;2023-08-01T08:25:14;7.25;;;2.08;;
22837;SDS011;11585;51.450;-0.240;2023-08-01T08:27:39;4.38;;;1.58;;
22837;SDS011;11585;51.450;-0.240;2023-08-01T08:30:05;5.97;;;1.50;;
22837;SDS011;11585;51.450;-0.240;2023-08-01T08:32:31;6.95;;;2.08;;
22837;SDS011;11585;51.450;-0.240;2023-08-01T08:37:44;12.43;;;2.17;;
22837;SDS011;11585;51.450;-0.240;2023-08-01T08:40:10;4.18;;;1.30;;
22837;SDS011;11585;51.450;-0.240;2023-08-01T08:42:37;4.00;;;1.48;;
22837;SDS011;11585;51.450;-0.240;2023-08-01T08:48:12;8.05;;;1.63;;
22837;SDS011;11585;51.450;-0.240;2023-08-01T08:50:42;7.55;;;1.83;;
22837;SDS011;11585;51.450;-0.240;2023-08-01T08:53:09;5.65;;;1.48;;
22837;SDS011;11585;51.450;-0.240;2023-08-01T08:58:59;6.88;;;1.90;;
22837;SDS011;11585;51.450;-0.240;2023-08-01T09:01:26;9.23;;;1.50;;
22837;SDS011;11585;51.450;-0.240;2023-08-01T09:03:52;8.27;;;1.70;;
22837;SDS011;11585;51.450;-0.240;2023-08-01T09:06:23;8.20;;;1.45;;
22837;SDS011;11585;51.450;-0.240;2023-08-01T09:09:02;9.52;;;1.30;;
22837;SDS011;11585;51.450;-0.240;2023-08-01T09:11:38;4.97;;;1.60;;
22837;SDS011;11585;51.450;-0.240;2023-08-01T09:14:09;4.00;;;1.80;;
22837;SDS011;11585;51.450;-0.240;2023-08-01T09:16:37;6.63;;;1.55;;
22837;SDS011;11585;51.450;-0.240;2023-08-01T09:19:05;5.95;;;1.50;;
22837;SDS011;11585;51.450;-0.240;2023-08-01T09:21:32;8.68;;;2.30;;
22837;SDS011;11585;51.450;-0.240;2023-08-01T09:24:09;7.65;;;1.70;;
22837;SDS011;11585;51.450;-0.240;2023-08-01T09:29:28;4.78;;;2.00;;
22837;SDS011;11585;51.450;-0.240;2023-08-01T09:31:54;4.68;;;1.33;;
22837;SDS011;11585;51.450;-0.240;2023-08-01T09:34:20;8.05;;;1.55;;
22837;SDS011;11585;51.450;-0.240;2023-08-01T09:39:32;6.90;;;1.30;;
22837;SDS011;11585;51.450;-0.240;2023-08-01T09:41:59;8.55;;;1.80;;
22837;SDS011;11585;51.450;-0.240;2023-08-01T09:44:26;9.02;;;1.80;;
22837;SDS011;11585;51.450;-0.240;2023-08-01T09:49:46;3.75;;;1.80;;
22837;SDS011;11585;51.450;-0.240;2023-08-01T09:52:13;7.10;;;1.50;;
22837;SDS011;11585;51.450;-0.240;2023-08-01T09:54:39;7.28;;;1.67;;
22837;SDS011;11585;51.450;-0.240;2023-08-01T09:57:06;4.88;;;1.70;;
22837;SDS011;11585;51.450;-0.240;2023-08-01T09:59:32;4.18;;;1.90;;
22837;SDS011;11585;51.450;-0.240;2023-08-01T10:01:59;6.65;;;1.65;;
22837;SDS011;11585;51.450;-0.240;2023-08-01T10:04:29;10.80;;;3.72;;
22837;SDS011;11585;51.450;-0.240;2023-08-01T10:09:45;9.02;;;2.67;;
22837;SDS011;11585;51.450;-0.240;2023-08-01T10:12:12;12.73;;;2.03;;
22837;SDS011;11585;51.450;-0.240;2023-08-01T10:14:40;8.85;;;1.95;;
22837;SDS011;11585;51.450;-0.240;2023-08-01T10:19:36;6.50;;;2.05;;
22837;SDS011;11585;51.450;-0.240;2023-08-01T10:22:03;5.65;;;1.90;;
22837;SDS011;11585;51.450;-0.240;2023-08-01T10:24:31;6.18;;;1.83;;
22837;SDS011;11585;51.450;-0.240;2023-08-01T10:27:21;8.70;;;1.80;;
22837;SDS011;11585;51.450;-0.240;2023-08-01T10:29:56;5.75;;;2.08;;
22837;SDS011;11585;51.450;-0.240;2023-08-01T10:32:27;9.60;;;3.15;;
22837;SDS011;11585;51.450;-0.240;2023-08-01T10:35:00;11.60;;;4.78;;
22837;SDS011;11585;51.450;-0.240;2023-08-01T10:37:26;4.10;;;1.45;;
22837;SDS011;11585;51.450;-0.240;2023-08-01T10:40:06;4.07;;;1.50;;
22837;SDS011;11585;51.450;-0.240;2023-08-01T10:42:42;7.93;;;2.08;;
22837;SDS011;11585;51.450;-0.240;2023-08-01T10:45:22;8.13;;;2.17;;
22837;SDS011;11585;51.450;-0.240;2023-08-01T10:47:49;12.88;;;4.10;;
22837;SDS011;11585;51.450;-0.240;2023-08-01T10:50:15;7.03;;;2.42;;
22837;SDS011;11585;51.450;-0.240;2023-08-01T10:52:42;3.40;;;1.17;;
22837;SDS011;11585;51.450;-0.240;2023-08-01T10:55:08;5.00;;;1.48;;
22837;SDS011;11585;51.450;-0.240;2023-08-01T10:57:35;8.25;;;2.20;;
22837;SDS011;11585;51.450;-0.240;2023-08-01T11:00:02;7.63;;;1.60;;
22837;SDS011;11585;51.450;-0.240;2023-08-01T11:02:34;1.98;;;1.08;;
22837;SDS011;11585;51.450;-0.240;2023-08-01T11:05:00;4.22;;;1.58;;
22837;SDS011;11585;51.450;-0.240;2023-08-01T11:07:31;6.03;;;1.60;;
22837;SDS011;11585;51.450;-0.240;2023-08-01T11:10:03;6.60;;;1.45;;
22837;SDS011;11585;51.450;-0.240;2023-08-01T11:12:30;3.97;;;1.35;;
22837;SDS011;11585;51.450;-0.240;2023-08-01T11:15:00;6.15;;;1.63;;
22837;SDS011;11585;51.450;-0.240;2023-08-01T11:17:26;5.35;;;1.33;;
22837;SDS011;11585;51.450;-0.240;2023-08-01T11:20:02;3.22;;;1.20;;
22837;SDS011;11585;51.450;-0.240;2023-08-01T11:22:33;3.83;;;1.10;;
22837;SDS011;11585;51.450;-0.240;2023-08-01T11:25:00;4.68;;;1.40;;
22837;SDS011;11585;51.450;-0.240;2023-08-01T11:27:26;9.20;;;2.65;;
22837;SDS011;11585;51.450;-0.240;2023-08-01T11:29:52;7.88;;;2.47;;
22837;SDS011;11585;51.450;-0.240;2023-08-01T11:32:19;9.38;;;1.98;;
22837;SDS011;11585;51.450;-0.240;2023-08-01T11:34:48;11.27;;;3.45;;
22837;SDS011;11585;51.450;-0.240;2023-08-01T11:37:14;14.30;;;4.43;;
22837;SDS011;11585;51.450;-0.240;2023-08-01T11:42:13;3.25;;;1.50;;
22837;SDS011;11585;51.450;-0.240;2023-08-01T11:44:40;4.20;;;1.70;;
22837;SDS011;11585;51.450;-0.240;2023-08-01T11:47:10;5.45;;;1.27;;
22837;SDS011;11585;51.450;-0.240;2023-08-01T11:49:39;6.10;;;1.80;;
22837;SDS011;11585;51.450;-0.240;2023-08-01T11:52:10;10.18;;;3.28;;
22837;SDS011;11585;51.450;-0.240;2023-08-01T11:54:46;5.50;;;1.73;;
22837;SDS011;11585;51.450;-0.240;2023-08-01T11:57:12;5.47;;;1.73;;
22837;SDS011;11585;51.450;-0.240;2023-08-01T11:59:45;9.40;;;1.42;;
22837;SDS011;11585;51.450;-0.240;2023-08-01T12:02:24;7.07;;;2.28;;
22837;SDS011;11585;51.450;-0.240;2023-08-01T12:07:35;2.92;;;1.10;;
22837;SDS011;11585;51.450;-0.240;2023-08-01T12:10:01;8.82;;;2.10;;
22837;SDS011;11585;51.450;-0.240;2023-08-01T12:12:27;3.42;;;1.30;;
22837;SDS011;11585;51.450;-0.240;2023-08-01T12:20:16;8.98;;;2.33;;
22837;SDS011;11585;51.450;-0.240;2023-08-01T12:22:42;8.30;;;2.60;;
22837;SDS011;11585;51.450;-0.240;2023-08-01T12:25:08;4.07;;;1.30;;
22837;SDS011;11585;51.450;-0.240;2023-08-01T12:27:33;4.78;;;1.30;;
22837;SDS011;11585;51.450;-0.240;2023-08-01T12:29:59;8.45;;;2.10;;
22837;SDS011;11585;51.450;-0.240;2023-08-01T12:32:25;5.47;;;1.73;;
22837;SDS011;11585;51.450;-0.240;2023-08-01T12:34:52;8.70;;;3.05;;
22837;SDS011;11585;51.450;-0.240;2023-08-01T12:37:18;9.35;;;2.60;;
22837;SDS011;11585;51.450;-0.240;2023-08-01T12:39:43;5.00;;;1.83;;
22837;SDS011;11585;51.450;-0.240;2023-08-01T12:42:12;4.43;;;1.55;;
22837;SDS011;11585;51.450;-0.240;2023-08-01T12:44:37;8.07;;;2.40;;
22837;SDS011;11585;51.450;-0.240;2023-08-01T12:47:03;13.68;;;3.60;;
22837;SDS011;11585;51.450;-0.240;2023-08-01T12:49:29;4.07;;;1.80;;
22837;SDS011;11585;51.450;-0.240;2023-08-01T12:51:55;4.13;;;1.67;;
22837;SDS011;11585;51.450;-0.240;2023-08-01T12:54:22;11.27;;;3.20;;
22837;SDS011;11585;51.450;-0.240;2023-08-01T12:56:47;4.13;;;1.40;;
22837;SDS011;11585;51.450;-0.240;2023-08-01T12:59:13;25.60;;;8.00;;
22837;SDS011;11585;51.450;-0.240;2023-08-01T13:01:38;12.55;;;1.85;;
22837;SDS011;11585;51.450;-0.240;2023-08-01T13:04:04;7.32;;;3.00;;
22837;SDS011;11585;51.450;-0.240;2023-08-01T13:06:31;9.40;;;2.45;;
22837;SDS011;11585;51.450;-0.240;2023-08-01T13:08:56;4.13;;;1.80;;
22837;SDS011;11585;51.450;-0.240;2023-08-01T13:11:23;3.00;;;1.48;;
22837;SDS011;11585;51.450;-0.240;2023-08-01T13:13:49;6.97;;;1.85;;
22837;SDS011;11585;51.450;-0.240;2023-08-01T13:18:59;8.20;;;3.42;;
22837;SDS011;11585;51.450;-0.240;2023-08-01T13:21:25;2.88;;;1.50;;
22837;SDS011;11585;51.450;-0.240;2023-08-01T13:23:50;6.53;;;1.60;;
22837;SDS011;11585;51.450;-0.240;2023-08-01T13:29:01;6.32;;;1.92;;
22837;SDS011;11585;51.450;-0.240;2023-08-01T13:31:27;7.40;;;1.95;;
22837;SDS011;11585;51.450;-0.240;2023-08-01T13:33:53;4.32;;;1.60;;
22837;SDS011;11585;51.450;-0.240;2023-08-01T13:39:04;6.63;;;2.00;;
22837;SDS011;11585;51.450;-0.240;2023-08-01T13:41:31;5.45;;;1.80;;
22837;SDS011;11585;51.450;-0.240;2023-08-01T13:43:58;5.95;;;1.88;;
22837;SDS011;11585;51.450;-0.240;2023-08-01T13:49:08;6.78;;;2.60;;
22837;SDS011;11585;51.450;-0.240;2023-08-01T13:51:34;5.43;;;2.22;;
22837;SDS011;11585;51.450;-0.240;2023-08-01T13:54:00;5.55;;;1.98;;
22837;SDS011;11585;51.450;-0.240;2023-08-01T13:56:27;7.00;;;2.00;;
22837;SDS011;11585;51.450;-0.240;2023-08-01T13:58:55;7.93;;;3.05;;
22837;SDS011;11585;51.450;-0.240;2023-08-01T14:01:21;4.30;;;1.70;;
22837;SDS011;11585;51.450;-0.240;2023-08-01T14:03:46;7.80;;;2.08;;
22837;SDS011;11585;51.450;-0.240;2023-08-01T14:06:13;4.05;;;2.13;;
22837;SDS011;11585;51.450;-0.240;2023-08-01T14:08:39;5.32;;;2.50;;
22837;SDS011;11585;51.450;-0.240;2023-08-01T14:11:07;4.35;;;1.80;;
22837;SDS011;11585;51.450;-0.240;2023-08-01T14:13:34;10.10;;;2.17;;
22837;SDS011;11585;51.450;-0.240;2023-08-01T14:16:02;2.88;;;1.70;;
22837;SDS011;11585;51.450;-0.240;2023-08-01T14:18:28;11.05;;;3.88;;
22837;SDS011;11585;51.450;-0.240;2023-08-01T14:20:54;7.97;;;2.17;;
22837;SDS011;11585;51.450;-0.240;2023-08-01T14:23:20;3.63;;;1.92;;
22837;SDS011;11585;51.450;-0.240;2023-08-01T14:25:46;5.95;;;2.33;;
22837;SDS011;11585;51.450;-0.240;2023-08-01T14:28:12;4.95;;;2.35;;
22837;SDS011;11585;51.450;-0.240;2023-08-01T14:30:38;10.52;;;3.22;;
22837;SDS011;11585;51.450;-0.240;2023-08-01T14:33:05;3.80;;;1.50;;
22837;SDS011;11585;51.450;-0.240;2023-08-01T14:40:28;7.80;;;1.92;;
22837;SDS011;11585;51.450;-0.240;2023-08-01T14:42:54;3.78;;;1.27;;
22837;SDS011;11585;51.450;-0.240;2023-08-01T14:47:50;4.50;;;1.60;;
22837;SDS011;11585;51.450;-0.240;2023-08-01T14:50:16;3.30;;;1.60;;
22837;SDS011;11585;51.450;-0.240;2023-08-01T14:52:41;8.75;;;2.30;;
22837;SDS011;11585;51.450;-0.240;2023-08-01T14:55:07;9.88;;;3.63;;
22837;SDS011;11585;51.450;-0.240;2023-08-01T14:57:33;5.07;;;1.58;;
22837;SDS011;11585;51.450;-0.240;2023-08-01T15:00:00;7.80;;;2.33;;
22837;SDS011;11585;51.450;-0.240;2023-08-01T15:02:26;5.93;;;1.80;;
22837;SDS011;11585;51.450;-0.240;2023-08-01T15:04:52;4.45;;;1.58;;
22837;SDS011;11585;51.450;-0.240;2023-08-01T15:07:25;5.65;;;1.58;;
22837;SDS011;11585;51.450;-0.240;2023-08-01T15:09:51;8.82;;;1.95;;
22837;SDS011;11585;51.450;-0.240;2023-08-01T15:12:17;6.57;;;2.03;;
22837;SDS011;11585;51.450;-0.240;2023-08-01T15:14:56;3.15;;;1.40;;
22837;SDS011;11585;51.450;-0.240;2023-08-01T15:17:22;5.80;;;1.27;;
22837;SDS011;11585;51.450;-0.240;2023-08-01T15:19:48;4.82;;;1.23;;
22837;SDS011;11585;51.450;-0.240;2023-08-01T15:22:14;13.73;;;3.30;;
22837;SDS011;11585;51.450;-0.240;2023-08-01T15:24:44;4.78;;;1.08;;
22837;SDS011;11585;51.450;-0.240;2023-08-01T15:27:10;5.05;;;1.35;;
22837;SDS011;11585;51.450;-0.240;2023-08-01T15:29:36;3.03;;;1.05;;
22837;SDS011;11585;51.450;-0.240;2023-08-01T15:32:02;6.88;;;1.55;;
22837;SDS011;11585;51.450;-0.240;2023-08-01T15:34:28;5.03;;;1.70;;
22837;SDS011;11585;51.450;-0.240;2023-08-01T15:36:53;6.90;;;1.92;;
22837;SDS011;11585;51.450;-0.240;2023-08-01T15:39:19;8.68;;;1.42;;
22837;SDS011;11585;51.450;-0.240;2023-08-01T15:41:45;6.95;;;1.70;;
22837;SDS011;11585;51.450;-0.240;2023-08-01T15:44:11;4.15;;;1.50;;
22837;SDS011;11585;51.450;-0.240;2023-08-01T15:46:37;3.90;;;1.60;;
22837;SDS011;11585;51.450;-0.240;2023-08-01T15:49:03;4.43;;;1.40;;
22837;SDS011;11585;51.450;-0.240;2023-08-01T15:51:29;3.75;;;1.30;;
22837;SDS011;11585;51.450;-0.240;2023-08-01T15:53:56;6.60;;;1.75;;
22837;SDS011;11585;51.450;-0.240;2023-08-01T15:56:23;6.15;;;2.15;;
22837;SDS011;11585;51.450;-0.240;2023-08-01T15:58:49;5.78;;;1.90;;
22837;SDS011;11585;51.450;-0.240;2023-08-01T16:01:15;17.40;;;5.43;;
22837;SDS011;11585;51.450;-0.240;2023-08-01T16:03:43;18.25;;;3.42;;
22837;SDS011;11585;51.450;-0.240;2023-08-01T16:09:13;15.48;;;3.35;;
22837;SDS011;11585;51.450;-0.240;2023-08-01T16:11:39;8.52;;;3.10;;
22837;SDS011;11585;51.450;-0.240;2023-08-01T16:14:05;13.20;;;3.33;;
22837;SDS011;11585;51.450;-0.240;2023-08-01T16:16:31;14.80;;;4.18;;
22837;SDS011;11585;51.450;-0.240;2023-08-01T16:18:57;10.15;;;3.85;;
22837;SDS011;11585;51.450;-0.240;2023-08-01T16:21:25;10.98;;;3.20;;
22837;SDS011;11585;51.450;-0.240;2023-08-01T16:23:51;12.30;;;4.30;;
22837;SDS011;11585;51.450;-0.240;2023-08-01T16:29:06;16.25;;;3.53;;
22837;SDS011;11585;51.450;-0.240;2023-08-01T16:31:31;12.60;;;3.72;;
22837;SDS011;11585;51.450;-0.240;2023-08-01T16:33:57;10.95;;;3.78;;
22837;SDS011;11585;51.450;-0.240;2023-08-01T16:43:07;10.15;;;3.03;;
22837;SDS011;11585;51.450;-0.240;2023-08-01T16:48:57;17.25;;;6.13;;
22837;SDS011;11585;51.450;-0.240;2023-08-01T16:51:23;14.02;;;4.03;;
22837;SDS011;11585;51.450;-0.240;2023-08-01T16:53:49;15.05;;;4.65;;
22837;SDS011;11585;51.450;-0.240;2023-08-01T17:02:58;10.25;;;3.78;;
22837;SDS011;11585;51.450;-0.240;2023-08-01T17:05:24;12.25;;;4.03;;
22837;SDS011;11585;51.450;-0.240;2023-08-01T17:07:50;13.98;;;3.67;;
22837;SDS011;11585;51.450;-0.240;2023-08-01T17:10:16;22.95;;;6.35;;
22837;SDS011;11585;51.450;-0.240;2023-08-01T17:12:41;7.78;;;3.42;;
22837;SDS011;11585;51.450;-0.240;2023-08-01T17:17:52;9.95;;;3.35;;
22837;SDS011;11585;51.450;-0.240;2023-08-01T17:20:18;11.40;;;3.60;;
22837;SDS011;11585;51.450;-0.240;2023-08-01T17:22:44;9.40;;;3.55;;
22837;SDS011;11585;51.450;-0.240;2023-08-01T17:28:31;11.40;;;3.80;;
22837;SDS011;11585;51.450;-0.240;2023-08-01T17:31:06;14.95;;;4.10;;
22837;SDS011;11585;51.450;-0.240;2023-08-01T17:33:35;9.45;;;4.00;;
22837;SDS011;11585;51.450;-0.240;2023-08-01T17:39:23;14.80;;;4.60;;
22837;SDS011;11585;51.450;-0.240;2023-08-01T17:41:49;9.65;;;4.13;;
22837;SDS011;11585;51.450;-0.240;2023-08-01T17:44:23;11.65;;;3.90;;
22837;SDS011;11585;51.450;-0.240;2023-08-01T17:50:12;7.53;;;3.58;;
22837;SDS011;11585;51.450;-0.240;2023-08-01T17:52:38;9.80;;;3.42;;
22837;SDS011;11585;51.450;-0.240;2023-08-01T17:58:31;8.57;;;3.03;;
22837;SDS011;11585;51.450;-0.240;2023-08-01T18:01:01;10.95;;;3.63;;
22837;SDS011;11585;51.450;-0.240;2023-08-01T18:03:38;9.05;;;3.17;;
22837;SDS011;11585;51.450;-0.240;2023-08-01T18:09:28;7.22;;;2.78;;
22837;SDS011;11585;51.450;-0.240;2023-08-01T18:11:57;9.02;;;3.20;;
22837;SDS011;11585;51.450;-0.240;2023-08-01T18:14:23;11.27;;;4.50;;
22837;SDS011;11585;51.450;-0.240;2023-08-01T18:20:11;13.43;;;3.22;;
22837;SDS011;11585;51.450;-0.240;2023-08-01T18:22:37;9.95;;;3.40;;
22837;SDS011;11585;51.450;-0.240;2023-08-01T18:28:25;8.45;;;3.20;;